sensor_id;sensor_type;location;lat;lon;timestamp;P1;durP1;ratioP1;P2;durP2;ratioP2
69008;SDS011;56065;52.472;13.380;2023-02-15T00:00:14;39.60;;;14.63;;
69008;SDS011;56065;52.472;13.380;2023-02-15T00:02:40;32.90;;;12.47;;
69008;SDS011;56065;52.472;13.380;2023-02-15T00:05:05;32.93;;;12.70;;
69008;SDS011;56065;52.472;13.380;2023-02-15T00:07:31;37.20;;;15.00;;
69008;SDS011;56065;52.472;13.380;2023-02-15T00:09:57;34.03;;;13.47;;
69008;SDS011;56065;52.472;13.380;2023-02-15T00:12:22;32.60;;;13.10;;
69008;SDS011;56065;52.472;13.380;2023-02-15T00:14:48;36.20;;;13.83;;
69008;SDS011;56065;52.472;13.380;2023-02-15T00:17:13;39.93;;;14.50;;
69008;SDS011;56065;52.472;13.380;2023-02-15T00:19:38;35.17;;;14.20;;
69008;SDS011;56065;52.472;13.380;2023-02-15T00:22:05;37.45;;;14.85;;
69008;SDS011;56065;52.472;13.380;2023-02-15T00:24:30;38.20;;;14.70;;
69008;SDS011;56065;52.472;13.380;2023-02-15T00:26:55;41.10;;;15.57;;
69008;SDS011;56065;52.472;13.380;2023-02-15T00:29:21;40.13;;;14.43;;
69008;SDS011;56065;52.472;13.380;2023-02-15T00:31:46;38.53;;;14.60;;
69008;SDS011;56065;52.472;13.380;2023-02-15T00:34:13;37.53;;;14.13;;
69008;SDS011;56065;52.472;13.380;2023-02-15T00:36:40;37.20;;;13.73;;
69008;SDS011;56065;52.472;13.380;2023-02-15T00:39:06;40.72;;;14.80;;
69008;SDS011;56065;52.472;13.380;2023-02-15T00:41:32;39.67;;;14.00;;
69008;SDS011;56065;52.472;13.380;2023-02-15T00:43:58;36.97;;;14.30;;
69008;SDS011;56065;52.472;13.380;2023-02-15T00:46:23;37.37;;;15.00;;
69008;SDS011;56065;52.472;13.380;2023-02-15T00:48:49;40.50;;;15.23;;
69008;SDS011;56065;52.472;13.380;2023-02-15T00:51:14;36.17;;;13.70;;
69008;SDS011;56065;52.472;13.380;2023-02-15T00:53:40;40.40;;;14.52;;
69008;SDS011;56065;52.472;13.380;2023-02-15T00:56:05;35.40;;;13.27;;
69008;SDS011;56065;52.472;13.380;2023-02-15T00:58:31;40.47;;;14.20;;
69008;SDS011;56065;52.472;13.380;2023-02-15T01:01:02;36.40;;;13.73;;
69008;SDS011;56065;52.472;13.380;2023-02-15T01:03:30;39.25;;;14.75;;
69008;SDS011;56065;52.472;13.380;2023-02-15T01:05:55;37.77;;;14.77;;
69008;SDS011;56065;52.472;13.380;2023-02-15T01:08:21;41.97;;;15.55;;
69008;SDS011;56065;52.472;13.380;2023-02-15T01:10:46;40.00;;;14.87;;
69008;SDS011;56065;52.472;13.380;2023-02-15T01:13:12;40.03;;;15.63;;
69008;SDS011;56065;52.472;13.380;2023-02-15T01:15:38;42.58;;;15.68;;
69008;SDS011;56065;52.472;13.380;2023-02-15T01:18:03;44.43;;;16.37;;
69008;SDS011;56065;52.472;13.380;2023-02-15T01:20:29;37.60;;;13.27;;
69008;SDS011;56065;52.472;13.380;2023-02-15T01:22:56;31.90;;;12.50;;
69008;SDS011;56065;52.472;13.380;2023-02-15T01:25:22;40.25;;;15.05;;
69008;SDS011;56065;52.472;13.380;2023-02-15T01:27:48;39.25;;;14.63;;
69008;SDS011;56065;52.472;13.380;2023-02-15T01:30:14;39.50;;;15.07;;
69008;SDS011;56065;52.472;13.380;2023-02-15T01:32:40;36.55;;;13.50;;
69008;SDS011;56065;52.472;13.380;2023-02-15T01:35:06;33.50;;;12.97;;
69008;SDS011;56065;52.472;13.380;2023-02-15T01:37:33;39.47;;;13.55;;
69008;SDS011;56065;52.472;13.380;2023-02-15T01:39:59;42.83;;;15.75;;
69008;SDS011;56065;52.472;13.380;2023-02-15T01:42:25;40.50;;;14.93;;
69008;SDS011;56065;52.472;13.380;2023-02-15T01:47:40;37.70;;;14.80;;
69008;SDS011;56065;52.472;13.380;2023-02-15T01:50:10;35.08;;;12.77;;
69008;SDS011;56065;52.472;13.380;2023-02-15T01:52:44;32.17;;;12.10;;
69008;SDS011;56065;52.472;13.380;2023-02-15T01:55:15;34.45;;;14.05;;
69008;SDS011;56065;52.472;13.380;2023-02-15T01:57:40;37.72;;;14.18;;
69008;SDS011;56065;52.472;13.380;2023-02-15T02:00:07;38.63;;;13.57;;
69008;SDS011;56065;52.472;13.380;2023-02-15T02:02:33;39.05;;;13.77;;
69008;SDS011;56065;52.472;13.380;2023-02-15T02:05:00;38.45;;;14.68;;
69008;SDS011;56065;52.472;13.380;2023-02-15T02:07:32;43.67;;;15.25;;
69008;SDS011;56065;52.472;13.380;2023-02-15T02:10:02;41.40;;;16.07;;
69008;SDS011;56065;52.472;13.380;2023-02-15T02:12:28;46.88;;;15.63;;
69008;SDS011;56065;52.472;13.380;2023-02-15T02:14:54;48.65;;;16.33;;
69008;SDS011;56065;52.472;13.380;2023-02-15T02:23:16;46.88;;;17.17;;
69008;SDS011;56065;52.472;13.380;2023-02-15T02:34:01;46.83;;;16.77;;
69008;SDS011;56065;52.472;13.380;2023-02-15T02:36:36;51.10;;;18.17;;
69008;SDS011;56065;52.472;13.380;2023-02-15T02:44:32;56.00;;;18.27;;
69008;SDS011;56065;52.472;13.380;2023-02-15T02:50:07;59.03;;;18.67;;
69008;SDS011;56065;52.472;13.380;2023-02-15T02:55:10;56.85;;;18.63;;
69008;SDS011;56065;52.472;13.380;2023-02-15T02:57:37;59.00;;;19.67;;
69008;SDS011;56065;52.472;13.380;2023-02-15T03:00:08;57.97;;;20.15;;
69008;SDS011;56065;52.472;13.380;2023-02-15T03:02:35;59.65;;;21.02;;
69008;SDS011;56065;52.472;13.380;2023-02-15T03:05:05;60.80;;;19.25;;
69008;SDS011;56065;52.472;13.380;2023-02-15T03:07:36;63.65;;;21.08;;
69008;SDS011;56065;52.472;13.380;2023-02-15T03:10:03;69.20;;;22.55;;
69008;SDS011;56065;52.472;13.380;2023-02-15T03:12:39;68.97;;;20.53;;
69008;SDS011;56065;52.472;13.380;2023-02-15T03:15:10;66.65;;;20.98;;
69008;SDS011;56065;52.472;13.380;2023-02-15T03:17:41;61.67;;;20.25;;
69008;SDS011;56065;52.472;13.380;2023-02-15T03:20:20;67.07;;;21.52;;
69008;SDS011;56065;52.472;13.380;2023-02-15T03:22:56;73.38;;;23.27;;
69008;SDS011;56065;52.472;13.380;2023-02-15T03:25:27;65.43;;;21.38;;
69008;SDS011;56065;52.472;13.380;2023-02-15T03:27:59;64.22;;;21.25;;
69008;SDS011;56065;52.472;13.380;2023-02-15T03:30:30;63.95;;;21.42;;
69008;SDS011;56065;52.472;13.380;2023-02-15T03:32:57;63.40;;;19.67;;
69008;SDS011;56065;52.472;13.380;2023-02-15T03:35:25;64.00;;;21.50;;
69008;SDS011;56065;52.472;13.380;2023-02-15T03:37:59;67.78;;;20.88;;
69008;SDS011;56065;52.472;13.380;2023-02-15T03:40:30;70.80;;;22.58;;
69008;SDS011;56065;52.472;13.380;2023-02-15T03:43:23;65.78;;;20.65;;
69008;SDS011;56065;52.472;13.380;2023-02-15T03:46:19;65.00;;;21.75;;
69008;SDS011;56065;52.472;13.380;2023-02-15T03:48:57;73.15;;;22.08;;
69008;SDS011;56065;52.472;13.380;2023-02-15T03:51:28;64.43;;;20.02;;
69008;SDS011;56065;52.472;13.380;2023-02-15T03:54:21;70.85;;;20.70;;
69008;SDS011;56065;52.472;13.380;2023-02-15T03:57:07;63.95;;;21.38;;
69008;SDS011;56065;52.472;13.380;2023-02-15T03:59:58;72.15;;;22.73;;
69008;SDS011;56065;52.472;13.380;2023-02-15T04:02:51;64.60;;;20.80;;
69008;SDS011;56065;52.472;13.380;2023-02-15T04:05:23;74.82;;;22.50;;
69008;SDS011;56065;52.472;13.380;2023-02-15T04:07:48;72.90;;;21.83;;
69008;SDS011;56065;52.472;13.380;2023-02-15T04:10:13;73.50;;;23.15;;
69008;SDS011;56065;52.472;13.380;2023-02-15T04:12:57;69.78;;;20.80;;
69008;SDS011;56065;52.472;13.380;2023-02-15T04:15:23;62.37;;;21.10;;
69008;SDS011;56065;52.472;13.380;2023-02-15T04:18:07;71.13;;;21.42;;
69008;SDS011;56065;52.472;13.380;2023-02-15T04:20:32;72.43;;;22.20;;
69008;SDS011;56065;52.472;13.380;2023-02-15T04:23:16;77.22;;;24.02;;
69008;SDS011;56065;52.472;13.380;2023-02-15T04:26:02;68.13;;;21.80;;
69008;SDS011;56065;52.472;13.380;2023-02-15T04:28:32;66.60;;;21.40;;
69008;SDS011;56065;52.472;13.380;2023-02-15T04:30:57;62.47;;;20.37;;
69008;SDS011;56065;52.472;13.380;2023-02-15T04:33:22;62.97;;;20.87;;
69008;SDS011;56065;52.472;13.380;2023-02-15T04:35:48;69.03;;;22.17;;
69008;SDS011;56065;52.472;13.380;2023-02-15T04:38:13;71.83;;;21.50;;
69008;SDS011;56065;52.472;13.380;2023-02-15T04:40:39;65.40;;;21.80;;
69008;SDS011;56065;52.472;13.380;2023-02-15T04:43:04;66.00;;;20.50;;
69008;SDS011;56065;52.472;13.380;2023-02-15T04:45:29;68.82;;;21.63;;
69008;SDS011;56065;52.472;13.380;2023-02-15T04:47:55;67.67;;;20.47;;
69008;SDS011;56065;52.472;13.380;2023-02-15T04:50:20;67.27;;;21.27;;
69008;SDS011;56065;52.472;13.380;2023-02-15T04:52:45;62.33;;;19.80;;
69008;SDS011;56065;52.472;13.380;2023-02-15T04:55:11;64.90;;;22.03;;
69008;SDS011;56065;52.472;13.380;2023-02-15T04:57:36;61.70;;;20.10;;
69008;SDS011;56065;52.472;13.380;2023-02-15T05:00:02;64.13;;;21.33;;
69008;SDS011;56065;52.472;13.380;2023-02-15T05:02:28;72.13;;;22.77;;
69008;SDS011;56065;52.472;13.380;2023-02-15T05:04:53;71.35;;;22.48;;
69008;SDS011;56065;52.472;13.380;2023-02-15T05:07:18;72.37;;;21.67;;
69008;SDS011;56065;52.472;13.380;2023-02-15T05:09:45;63.40;;;21.10;;
69008;SDS011;56065;52.472;13.380;2023-02-15T05:12:10;64.45;;;20.58;;
69008;SDS011;56065;52.472;13.380;2023-02-15T05:14:36;68.90;;;21.97;;
69008;SDS011;56065;52.472;13.380;2023-02-15T05:17:01;64.77;;;21.37;;
69008;SDS011;56065;52.472;13.380;2023-02-15T05:19:28;66.63;;;20.40;;
69008;SDS011;56065;52.472;13.380;2023-02-15T05:21:53;58.63;;;19.17;;
69008;SDS011;56065;52.472;13.380;2023-02-15T05:24:19;61.10;;;20.70;;
69008;SDS011;56065;52.472;13.380;2023-02-15T05:27:02;67.30;;;21.60;;
69008;SDS011;56065;52.472;13.380;2023-02-15T05:29:46;70.55;;;20.58;;
69008;SDS011;56065;52.472;13.380;2023-02-15T05:32:12;55.60;;;17.77;;
69008;SDS011;56065;52.472;13.380;2023-02-15T05:34:38;60.63;;;20.25;;
69008;SDS011;56065;52.472;13.380;2023-02-15T05:37:04;62.83;;;19.37;;
69008;SDS011;56065;52.472;13.380;2023-02-15T05:39:29;65.23;;;20.37;;
69008;SDS011;56065;52.472;13.380;2023-02-15T05:41:57;63.57;;;21.43;;
69008;SDS011;56065;52.472;13.380;2023-02-15T05:44:24;67.30;;;21.80;;
69008;SDS011;56065;52.472;13.380;2023-02-15T05:46:50;67.13;;;21.23;;
69008;SDS011;56065;52.472;13.380;2023-02-15T05:49:15;67.13;;;20.60;;
69008;SDS011;56065;52.472;13.380;2023-02-15T05:51:40;58.25;;;19.60;;
69008;SDS011;56065;52.472;13.380;2023-02-15T05:54:06;74.70;;;22.98;;
69008;SDS011;56065;52.472;13.380;2023-02-15T05:56:31;74.50;;;22.30;;
69008;SDS011;56065;52.472;13.380;2023-02-15T05:58:56;73.40;;;22.20;;
69008;SDS011;56065;52.472;13.380;2023-02-15T06:01:22;71.17;;;21.93;;
69008;SDS011;56065;52.472;13.380;2023-02-15T06:03:47;77.72;;;21.83;;
69008;SDS011;56065;52.472;13.380;2023-02-15T06:06:13;70.67;;;19.97;;
69008;SDS011;56065;52.472;13.380;2023-02-15T06:08:39;64.30;;;19.10;;
69008;SDS011;56065;52.472;13.380;2023-02-15T06:11:04;84.13;;;22.07;;
69008;SDS011;56065;52.472;13.380;2023-02-15T06:13:30;73.20;;;21.73;;
69008;SDS011;56065;52.472;13.380;2023-02-15T06:15:56;80.60;;;23.23;;
69008;SDS011;56065;52.472;13.380;2023-02-15T06:18:21;89.03;;;22.27;;
69008;SDS011;56065;52.472;13.380;2023-02-15T06:20:47;67.17;;;18.30;;
69008;SDS011;56065;52.472;13.380;2023-02-15T06:23:13;70.60;;;21.58;;
69008;SDS011;56065;52.472;13.380;2023-02-15T06:25:39;83.90;;;23.70;;
69008;SDS011;56065;52.472;13.380;2023-02-15T06:28:04;68.20;;;20.47;;
69008;SDS011;56065;52.472;13.380;2023-02-15T06:30:30;153.47;;;24.77;;
69008;SDS011;56065;52.472;13.380;2023-02-15T06:32:55;56.97;;;19.08;;
69008;SDS011;56065;52.472;13.380;2023-02-15T06:35:20;75.23;;;18.80;;
69008;SDS011;56065;52.472;13.380;2023-02-15T06:37:46;110.65;;;21.50;;
69008;SDS011;56065;52.472;13.380;2023-02-15T06:40:12;67.80;;;19.95;;
69008;SDS011;56065;52.472;13.380;2023-02-15T06:42:37;246.73;;;30.60;;
69008;SDS011;56065;52.472;13.380;2023-02-15T06:45:03;157.47;;;23.63;;
69008;SDS011;56065;52.472;13.380;2023-02-15T06:47:29;169.52;;;23.77;;
69008;SDS011;56065;52.472;13.380;2023-02-15T06:49:55;132.83;;;23.87;;
69008;SDS011;56065;52.472;13.380;2023-02-15T06:52:20;235.65;;;27.13;;
69008;SDS011;56065;52.472;13.380;2023-02-15T06:54:45;117.47;;;20.35;;
69008;SDS011;56065;52.472;13.380;2023-02-15T06:57:11;197.37;;;28.20;;
69008;SDS011;56065;52.472;13.380;2023-02-15T06:59:36;119.10;;;19.97;;
69008;SDS011;56065;52.472;13.380;2023-02-15T07:02:01;79.33;;;19.33;;
69008;SDS011;56065;52.472;13.380;2023-02-15T07:04:27;126.90;;;20.97;;
69008;SDS011;56065;52.472;13.380;2023-02-15T07:06:54;119.32;;;20.02;;
69008;SDS011;56065;52.472;13.380;2023-02-15T07:09:20;158.03;;;24.57;;
69008;SDS011;56065;52.472;13.380;2023-02-15T07:11:45;91.53;;;19.40;;
69008;SDS011;56065;52.472;13.380;2023-02-15T07:14:29;128.40;;;21.33;;
69008;SDS011;56065;52.472;13.380;2023-02-15T07:16:55;104.72;;;20.67;;
69008;SDS011;56065;52.472;13.380;2023-02-15T07:19:20;134.30;;;22.57;;
69008;SDS011;56065;52.472;13.380;2023-02-15T07:21:45;127.93;;;20.73;;
69008;SDS011;56065;52.472;13.380;2023-02-15T07:24:11;130.97;;;23.93;;
69008;SDS011;56065;52.472;13.380;2023-02-15T07:26:36;118.27;;;21.80;;
69008;SDS011;56065;52.472;13.380;2023-02-15T07:29:01;129.88;;;21.33;;
69008;SDS011;56065;52.472;13.380;2023-02-15T07:31:27;125.40;;;21.45;;
69008;SDS011;56065;52.472;13.380;2023-02-15T07:33:52;66.73;;;18.03;;
69008;SDS011;56065;52.472;13.380;2023-02-15T07:36:18;76.30;;;18.27;;
69008;SDS011;56065;52.472;13.380;2023-02-15T07:38:43;65.83;;;16.97;;
69008;SDS011;56065;52.472;13.380;2023-02-15T07:41:10;70.63;;;17.48;;
69008;SDS011;56065;52.472;13.380;2023-02-15T07:43:39;51.08;;;15.85;;
69008;SDS011;56065;52.472;13.380;2023-02-15T07:46:07;172.32;;;21.83;;
69008;SDS011;56065;52.472;13.380;2023-02-15T07:48:34;66.47;;;17.45;;
69008;SDS011;56065;52.472;13.380;2023-02-15T07:51:01;120.30;;;20.95;;
69008;SDS011;56065;52.472;13.380;2023-02-15T07:53:28;62.80;;;16.15;;
69008;SDS011;56065;52.472;13.380;2023-02-15T07:55:54;51.72;;;15.45;;
69008;SDS011;56065;52.472;13.380;2023-02-15T07:58:22;104.90;;;18.92;;
69008;SDS011;56065;52.472;13.380;2023-02-15T08:01:08;109.65;;;19.42;;
69008;SDS011;56065;52.472;13.380;2023-02-15T08:03:33;109.63;;;21.70;;
69008;SDS011;56065;52.472;13.380;2023-02-15T08:05:59;67.90;;;17.33;;
69008;SDS011;56065;52.472;13.380;2023-02-15T08:08:25;55.78;;;16.23;;
69008;SDS011;56065;52.472;13.380;2023-02-15T08:11:37;63.30;;;16.40;;
69008;SDS011;56065;52.472;13.380;2023-02-15T08:13:54;51.30;;;15.52;;
69008;SDS011;56065;52.472;13.380;2023-02-15T08:16:27;53.55;;;16.30;;
69008;SDS011;56065;52.472;13.380;2023-02-15T08:18:52;52.55;;;16.50;;
69008;SDS011;56065;52.472;13.380;2023-02-15T08:21:19;60.88;;;15.70;;
69008;SDS011;56065;52.472;13.380;2023-02-15T08:23:45;54.10;;;16.27;;
69008;SDS011;56065;52.472;13.380;2023-02-15T08:26:11;73.00;;;17.83;;
69008;SDS011;56065;52.472;13.380;2023-02-15T08:28:36;78.37;;;18.23;;
69008;SDS011;56065;52.472;13.380;2023-02-15T08:31:05;56.63;;;16.90;;
69008;SDS011;56065;52.472;13.380;2023-02-15T08:33:35;71.30;;;16.65;;
69008;SDS011;56065;52.472;13.380;2023-02-15T08:36:05;100.10;;;17.25;;
69008;SDS011;56065;52.472;13.380;2023-02-15T08:38:32;70.90;;;18.92;;
69008;SDS011;56065;52.472;13.380;2023-02-15T08:41:08;51.60;;;15.73;;
69008;SDS011;56065;52.472;13.380;2023-02-15T08:43:57;123.93;;;18.60;;
69008;SDS011;56065;52.472;13.380;2023-02-15T08:46:26;106.60;;;16.00;;
69008;SDS011;56065;52.472;13.380;2023-02-15T08:48:52;113.70;;;19.17;;
69008;SDS011;56065;52.472;13.380;2023-02-15T08:51:22;81.17;;;17.33;;
69008;SDS011;56065;52.472;13.380;2023-02-15T08:53:53;44.38;;;13.75;;
69008;SDS011;56065;52.472;13.380;2023-02-15T08:56:24;53.13;;;15.05;;
69008;SDS011;56065;52.472;13.380;2023-02-15T08:58:51;78.93;;;24.77;;
69008;SDS011;56065;52.472;13.380;2023-02-15T09:01:18;62.15;;;16.92;;
69008;SDS011;56065;52.472;13.380;2023-02-15T09:03:46;83.75;;;16.70;;
69008;SDS011;56065;52.472;13.380;2023-02-15T09:06:14;50.13;;;14.68;;
69008;SDS011;56065;52.472;13.380;2023-02-15T09:08:40;118.03;;;19.45;;
69008;SDS011;56065;52.472;13.380;2023-02-15T09:13:31;63.43;;;16.50;;
69008;SDS011;56065;52.472;13.380;2023-02-15T09:16:04;72.27;;;17.30;;
69008;SDS011;56065;52.472;13.380;2023-02-15T09:18:31;59.13;;;16.60;;
69008;SDS011;56065;52.472;13.380;2023-02-15T09:21:13;43.50;;;13.98;;
69008;SDS011;56065;52.472;13.380;2023-02-15T09:23:40;50.65;;;14.90;;
69008;SDS011;56065;52.472;13.380;2023-02-15T09:26:07;41.58;;;14.23;;
69008;SDS011;56065;52.472;13.380;2023-02-15T09:28:35;40.50;;;14.90;;
69008;SDS011;56065;52.472;13.380;2023-02-15T09:31:04;42.83;;;14.55;;
69008;SDS011;56065;52.472;13.380;2023-02-15T09:33:37;39.73;;;14.43;;
69008;SDS011;56065;52.472;13.380;2023-02-15T09:36:04;38.28;;;13.93;;
69008;SDS011;56065;52.472;13.380;2023-02-15T09:38:30;40.70;;;15.80;;
69008;SDS011;56065;52.472;13.380;2023-02-15T09:44:04;42.80;;;15.85;;
69008;SDS011;56065;52.472;13.380;2023-02-15T09:46:56;38.03;;;13.70;;
69008;SDS011;56065;52.472;13.380;2023-02-15T09:52:19;38.22;;;15.20;;
69008;SDS011;56065;52.472;13.380;2023-02-15T09:57:50;42.00;;;14.20;;
69008;SDS011;56065;52.472;13.380;2023-02-15T10:06:06;38.30;;;14.60;;
69008;SDS011;56065;52.472;13.380;2023-02-15T10:09:07;39.05;;;14.60;;
69008;SDS011;56065;52.472;13.380;2023-02-15T10:17:40;34.28;;;14.23;;
69008;SDS011;56065;52.472;13.380;2023-02-15T10:23:33;35.33;;;14.82;;
69008;SDS011;56065;52.472;13.380;2023-02-15T10:31:35;39.10;;;15.73;;
69008;SDS011;56065;52.472;13.380;2023-02-15T10:58:13;37.22;;;16.10;;
69008;SDS011;56065;52.472;13.380;2023-02-15T11:03:36;38.40;;;16.08;;
69008;SDS011;56065;52.472;13.380;2023-02-15T11:06:15;38.97;;;16.88;;
69008;SDS011;56065;52.472;13.380;2023-02-15T11:09:17;39.42;;;18.17;;
69008;SDS011;56065;52.472;13.380;2023-02-15T11:11:38;38.72;;;17.50;;
69008;SDS011;56065;52.472;13.380;2023-02-15T11:14:13;38.70;;;17.00;;
69008;SDS011;56065;52.472;13.380;2023-02-15T11:16:44;35.08;;;16.63;;
69008;SDS011;56065;52.472;13.380;2023-02-15T11:19:22;38.17;;;18.08;;
69008;SDS011;56065;52.472;13.380;2023-02-15T11:21:59;34.05;;;17.00;;
69008;SDS011;56065;52.472;13.380;2023-02-15T11:24:28;34.95;;;17.25;;
69008;SDS011;56065;52.472;13.380;2023-02-15T11:27:03;32.53;;;16.70;;
69008;SDS011;56065;52.472;13.380;2023-02-15T11:29:41;35.25;;;17.58;;
69008;SDS011;56065;52.472;13.380;2023-02-15T11:32:23;36.53;;;17.38;;
69008;SDS011;56065;52.472;13.380;2023-02-15T11:40:21;34.10;;;16.93;;
69008;SDS011;56065;52.472;13.380;2023-02-15T11:42:51;38.20;;;17.70;;
69008;SDS011;56065;52.472;13.380;2023-02-15T11:45:30;37.53;;;16.52;;
69008;SDS011;56065;52.472;13.380;2023-02-15T11:47:57;30.35;;;15.95;;
69008;SDS011;56065;52.472;13.380;2023-02-15T11:50:24;33.97;;;16.92;;
69008;SDS011;56065;52.472;13.380;2023-02-15T11:52:52;31.60;;;16.23;;
69008;SDS011;56065;52.472;13.380;2023-02-15T11:55:26;32.72;;;17.05;;
69008;SDS011;56065;52.472;13.380;2023-02-15T11:58:05;34.72;;;18.20;;
69008;SDS011;56065;52.472;13.380;2023-02-15T12:00:55;31.95;;;17.02;;
69008;SDS011;56065;52.472;13.380;2023-02-15T12:04:09;35.50;;;19.13;;
69008;SDS011;56065;52.472;13.380;2023-02-15T12:09:34;30.85;;;17.25;;
69008;SDS011;56065;52.472;13.380;2023-02-15T12:12:19;30.40;;;16.58;;
69008;SDS011;56065;52.472;13.380;2023-02-15T12:14:48;34.22;;;18.02;;
69008;SDS011;56065;52.472;13.380;2023-02-15T12:17:21;31.13;;;18.02;;
69008;SDS011;56065;52.472;13.380;2023-02-15T12:19:51;31.47;;;17.67;;
69008;SDS011;56065;52.472;13.380;2023-02-15T12:22:27;28.35;;;16.52;;
69008;SDS011;56065;52.472;13.380;2023-02-15T12:24:56;25.75;;;14.02;;
69008;SDS011;56065;52.472;13.380;2023-02-15T12:27:28;31.40;;;18.65;;
69008;SDS011;56065;52.472;13.380;2023-02-15T12:30:00;33.90;;;18.08;;
69008;SDS011;56065;52.472;13.380;2023-02-15T12:32:34;31.37;;;17.60;;
69008;SDS011;56065;52.472;13.380;2023-02-15T12:35:14;29.00;;;16.98;;
69008;SDS011;56065;52.472;13.380;2023-02-15T12:38:19;30.20;;;17.10;;
69008;SDS011;56065;52.472;13.380;2023-02-15T12:41:02;30.98;;;17.48;;
69008;SDS011;56065;52.472;13.380;2023-02-15T12:43:36;28.73;;;16.38;;
69008;SDS011;56065;52.472;13.380;2023-02-15T12:49:18;29.73;;;16.67;;
69008;SDS011;56065;52.472;13.380;2023-02-15T12:51:45;33.58;;;17.38;;
69008;SDS011;56065;52.472;13.380;2023-02-15T12:56:48;30.17;;;15.48;;
69008;SDS011;56065;52.472;13.380;2023-02-15T12:59:14;26.33;;;15.43;;
69008;SDS011;56065;52.472;13.380;2023-02-15T13:01:45;29.42;;;16.95;;
69008;SDS011;56065;52.472;13.380;2023-02-15T13:04:29;30.93;;;17.07;;
69008;SDS011;56065;52.472;13.380;2023-02-15T13:06:56;28.73;;;16.45;;
69008;SDS011;56065;52.472;13.380;2023-02-15T13:14:59;29.38;;;15.93;;
69008;SDS011;56065;52.472;13.380;2023-02-15T13:17:28;30.73;;;15.87;;
69008;SDS011;56065;52.472;13.380;2023-02-15T13:20:05;31.27;;;16.15;;
69008;SDS011;56065;52.472;13.380;2023-02-15T13:22:42;28.10;;;14.80;;
69008;SDS011;56065;52.472;13.380;2023-02-15T13:25:14;27.10;;;14.45;;
69008;SDS011;56065;52.472;13.380;2023-02-15T13:27:44;28.63;;;15.27;;
69008;SDS011;56065;52.472;13.380;2023-02-15T13:30:18;28.40;;;14.53;;
69008;SDS011;56065;52.472;13.380;2023-02-15T13:32:48;28.70;;;13.63;;
69008;SDS011;56065;52.472;13.380;2023-02-15T13:35:16;26.75;;;14.13;;
69008;SDS011;56065;52.472;13.380;2023-02-15T13:51:16;27.00;;;12.73;;
69008;SDS011;56065;52.472;13.380;2023-02-15T13:56:26;27.77;;;14.77;;
69008;SDS011;56065;52.472;13.380;2023-02-15T14:09:47;25.23;;;11.93;;
69008;SDS011;56065;52.472;13.380;2023-02-15T14:17:43;21.33;;;10.07;;
69008;SDS011;56065;52.472;13.380;2023-02-15T14:20:25;18.95;;;9.20;;
69008;SDS011;56065;52.472;13.380;2023-02-15T14:23:11;24.77;;;10.43;;
69008;SDS011;56065;52.472;13.380;2023-02-15T14:25:59;17.73;;;9.37;;
69008;SDS011;56065;52.472;13.380;2023-02-15T14:31:00;20.55;;;9.60;;
69008;SDS011;56065;52.472;13.380;2023-02-15T14:33:39;19.33;;;9.55;;
69008;SDS011;56065;52.472;13.380;2023-02-15T14:36:08;23.52;;;10.75;;
69008;SDS011;56065;52.472;13.380;2023-02-15T14:46:50;18.77;;;9.90;;
69008;SDS011;56065;52.472;13.380;2023-02-15T14:49:25;19.13;;;10.00;;
69008;SDS011;56065;52.472;13.380;2023-02-15T14:57:32;18.53;;;9.20;;
69008;SDS011;56065;52.472;13.380;2023-02-15T15:02:12;17.77;;;9.07;;
69008;SDS011;56065;52.472;13.380;2023-02-15T15:04:48;18.00;;;9.20;;
69008;SDS011;56065;52.472;13.380;2023-02-15T15:07:24;19.48;;;10.43;;
69008;SDS011;56065;52.472;13.380;2023-02-15T15:16:23;18.20;;;9.00;;
69008;SDS011;56065;52.472;13.380;2023-02-15T15:18:50;16.30;;;8.05;;
69008;SDS011;56065;52.472;13.380;2023-02-15T15:33:04;25.33;;;11.87;;
69008;SDS011;56065;52.472;13.380;2023-02-15T15:38:48;24.83;;;11.70;;
69008;SDS011;56065;52.472;13.380;2023-02-15T15:50:15;25.52;;;11.52;;
69008;SDS011;56065;52.472;13.380;2023-02-15T15:52:54;22.45;;;10.50;;
69008;SDS011;56065;52.472;13.380;2023-02-15T15:55:23;25.45;;;10.88;;
69008;SDS011;56065;52.472;13.380;2023-02-15T15:57:51;23.55;;;10.55;;
69008;SDS011;56065;52.472;13.380;2023-02-15T16:03:12;26.50;;;10.77;;
69008;SDS011;56065;52.472;13.380;2023-02-15T16:05:46;27.20;;;11.75;;
69008;SDS011;56065;52.472;13.380;2023-02-15T16:08:13;25.85;;;11.18;;
69008;SDS011;56065;52.472;13.380;2023-02-15T16:10:39;27.58;;;11.90;;
69008;SDS011;56065;52.472;13.380;2023-02-15T16:13:05;24.90;;;10.87;;
69008;SDS011;56065;52.472;13.380;2023-02-15T16:15:36;25.38;;;12.18;;
69008;SDS011;56065;52.472;13.380;2023-02-15T16:18:11;24.92;;;11.38;;
69008;SDS011;56065;52.472;13.380;2023-02-15T16:20:40;27.85;;;12.10;;
69008;SDS011;56065;52.472;13.380;2023-02-15T16:28:49;31.75;;;12.23;;
69008;SDS011;56065;52.472;13.380;2023-02-15T16:31:15;29.60;;;12.55;;
69008;SDS011;56065;52.472;13.380;2023-02-15T16:33:42;26.37;;;11.33;;
69008;SDS011;56065;52.472;13.380;2023-02-15T16:36:12;24.77;;;11.32;;
69008;SDS011;56065;52.472;13.380;2023-02-15T16:41:11;32.23;;;11.83;;
69008;SDS011;56065;52.472;13.380;2023-02-15T16:43:38;29.10;;;12.25;;
69008;SDS011;56065;52.472;13.380;2023-02-15T16:46:10;28.83;;;11.23;;
69008;SDS011;56065;52.472;13.380;2023-02-15T16:48:39;30.92;;;12.27;;
69008;SDS011;56065;52.472;13.380;2023-02-15T16:51:08;25.20;;;11.27;;
69008;SDS011;56065;52.472;13.380;2023-02-15T16:53:34;30.48;;;12.38;;
69008;SDS011;56065;52.472;13.380;2023-02-15T16:56:01;26.80;;;10.98;;
69008;SDS011;56065;52.472;13.380;2023-02-15T16:58:30;27.05;;;11.32;;
69008;SDS011;56065;52.472;13.380;2023-02-15T17:01:10;29.55;;;11.48;;
69008;SDS011;56065;52.472;13.380;2023-02-15T17:03:38;32.60;;;12.03;;
69008;SDS011;56065;52.472;13.380;2023-02-15T17:06:05;40.88;;;13.05;;
69008;SDS011;56065;52.472;13.380;2023-02-15T17:08:51;29.85;;;12.27;;
69008;SDS011;56065;52.472;13.380;2023-02-15T17:11:18;26.67;;;11.77;;
69008;SDS011;56065;52.472;13.380;2023-02-15T17:16:50;28.70;;;11.63;;
69008;SDS011;56065;52.472;13.380;2023-02-15T17:19:23;28.90;;;11.73;;
69008;SDS011;56065;52.472;13.380;2023-02-15T17:21:55;27.55;;;11.77;;
69008;SDS011;56065;52.472;13.380;2023-02-15T17:24:30;31.02;;;11.10;;
69008;SDS011;56065;52.472;13.380;2023-02-15T17:27:18;28.92;;;11.57;;
69008;SDS011;56065;52.472;13.380;2023-02-15T17:29:47;27.37;;;11.10;;
69008;SDS011;56065;52.472;13.380;2023-02-15T17:32:20;27.52;;;11.25;;
69008;SDS011;56065;52.472;13.380;2023-02-15T17:37:41;31.10;;;12.32;;
69008;SDS011;56065;52.472;13.380;2023-02-15T17:40:32;30.38;;;11.40;;
69008;SDS011;56065;52.472;13.380;2023-02-15T17:42:57;27.87;;;12.60;;
69008;SDS011;56065;52.472;13.380;2023-02-15T17:45:25;30.52;;;12.80;;
69008;SDS011;56065;52.472;13.380;2023-02-15T17:47:57;29.67;;;12.63;;
69008;SDS011;56065;52.472;13.380;2023-02-15T17:50:24;30.00;;;12.35;;